Time;durP1;ratioP1;P1;durP2;ratioP2;P2;SDS_P1;SDS_P2;PMS_P1;PMS_P2;Temp;Humidity;BMP_temperature;BMP_pressure;BME280_temperature;BME280_humidity;BME280_pressure;Samples;Min_cycle;Max_cycle;Signal;HPM_P1;HPM_P2
2021/10/11 00:00:56;;;;;;;23.23;9.10;;;;;;;23.93;17.09;98910.38;5086715;28;20047;-80
2021/10/11 00:03:22;;;;;;;19.52;9.10;;;;;;;24.18;17.02;98904.59;5080109;28;20414;-80
2021/10/11 00:05:49;;;;;;;18.92;9.55;;;;;;;24.10;16.95;98900.25;5081799;28;20040;-80
2021/10/11 00:08:14;;;;;;;16.40;8.40;;;;;;;24.10;16.96;98897.44;5084953;28;20043;-80
2021/10/11 00:10:41;;;;;;;19.65;8.80;;;;;;;24.27;16.54;98891.66;5082659;28;20078;-80
2021/10/11 00:13:07;;;;;;;17.08;7.88;;;;;;;24.10;16.83;98900.25;5085222;28;20028;-80
2021/10/11 00:15:33;;;;;;;17.50;8.73;;;;;;;23.57;17.11;98897.84;5079295;28;20038;-80
2021/10/11 00:17:59;;;;;;;12.95;7.35;;;;;;;23.50;17.12;98892.28;5084016;28;20040;-80
2021/10/11 00:20:25;;;;;;;14.93;7.65;;;;;;;23.69;16.68;98889.72;5087464;28;20039;-79
2021/10/11 00:22:51;;;;;;;17.05;7.80;;;;;;;23.77;16.47;98888.47;5088154;28;20123;-79
2021/10/11 00:25:17;;;;;;;16.90;8.95;;;;;;;23.73;16.57;98884.09;5084896;28;20024;-79
2021/10/11 00:27:44;;;;;;;16.85;9.00;;;;;;;23.34;17.10;98884.31;5082933;28;20051;-79
2021/10/11 00:30:12;;;;;;;17.67;8.95;;;;;;;23.18;17.40;98889.63;5077411;28;20032;-79
2021/10/11 00:32:39;;;;;;;18.40;9.15;;;;;;;23.31;17.15;98885.16;5086473;28;20056;-79
2021/10/11 00:35:06;;;;;;;16.92;8.55;;;;;;;23.57;16.97;98887.41;5091442;28;20114;-79
2021/10/11 00:37:32;;;;;;;18.30;9.57;;;;;;;23.56;17.06;98880.22;5087084;28;20044;-79
2021/10/11 00:39:58;;;;;;;14.38;7.97;;;;;;;23.79;16.81;98880.44;5081799;28;20394;-79
2021/10/11 00:42:24;;;;;;;18.42;7.82;;;;;;;23.86;16.76;98883.19;5084096;28;20069;-79
2021/10/11 00:44:50;;;;;;;18.75;9.77;;;;;;;23.66;16.93;98873.75;5083029;28;20064;-79
2021/10/11 00:47:16;;;;;;;19.95;9.32;;;;;;;23.55;17.11;98872.22;5086414;28;20039;-79
2021/10/11 00:49:42;;;;;;;16.98;8.85;;;;;;;23.54;17.29;98874.22;5087025;28;20044;-79
2021/10/11 00:52:09;;;;;;;17.00;9.57;;;;;;;23.60;16.97;98872.56;5091719;28;20040;-79
2021/10/11 00:54:35;;;;;;;18.02;8.93;;;;;;;23.77;16.80;98874.44;5077730;28;20123;-79
2021/10/11 00:57:01;;;;;;;17.67;9.18;;;;;;;23.87;16.86;98879.19;5087699;28;20036;-79
2021/10/11 00:59:27;;;;;;;20.02;9.77;;;;;;;23.38;16.82;98875.94;5086660;28;20043;-79
2021/10/11 01:01:53;;;;;;;18.70;8.90;;;;;;;23.30;17.02;98880.75;5079915;28;20032;-79
2021/10/11 01:04:19;;;;;;;21.23;9.27;;;;;;;23.37;16.94;98869.53;5085030;28;20032;-79
2021/10/11 01:06:45;;;;;;;21.08;9.25;;;;;;;23.62;16.59;98866.56;5087863;28;20111;-79
2021/10/11 01:09:13;;;;;;;16.30;8.13;;;;;;;23.86;16.37;98866.38;5086413;28;20031;-79
2021/10/11 01:11:40;;;;;;;21.27;9.13;;;;;;;23.81;16.65;98855.59;5085921;28;20034;-79
2021/10/11 01:14:07;;;;;;;18.63;9.65;;;;;;;23.70;16.87;98859.69;5084586;28;20094;-79
2021/10/11 01:16:34;;;;;;;17.90;8.48;;;;;;;23.38;17.00;98845.91;5075856;28;20036;-79
2021/10/11 01:19:00;;;;;;;18.52;9.10;;;;;;;23.32;17.03;98853.13;5082946;28;20037;-79
2021/10/11 01:21:27;;;;;;;19.65;8.82;;;;;;;23.51;16.87;98844.22;5080716;28;20045;-79
2021/10/11 01:23:54;;;;;;;20.33;9.73;;;;;;;23.59;16.70;98844.97;5080731;28;20031;-79
2021/10/11 01:26:21;;;;;;;18.60;9.57;;;;;;;23.18;16.98;98845.59;5088576;28;20566;-79
2021/10/11 01:28:47;;;;;;;19.42;8.63;;;;;;;23.29;16.90;98845.56;5086714;28;20031;-79
2021/10/11 01:31:13;;;;;;;17.98;9.88;;;;;;;23.60;16.92;98840.94;5088200;28;20496;-79
2021/10/11 01:33:39;;;;;;;14.95;7.90;;;;;;;23.79;16.31;98832.78;5077017;28;20040;-79
2021/10/11 01:36:05;;;;;;;21.48;10.05;;;;;;;23.81;16.27;98830.34;5086325;28;20035;-79
2021/10/11 01:38:32;;;;;;;22.40;9.65;;;;;;;23.51;16.40;98835.00;5084458;28;20044;-79
2021/10/11 01:40:58;;;;;;;17.40;8.57;;;;;;;23.63;16.27;98835.31;5085255;28;20029;-79
2021/10/11 01:43:24;;;;;;;18.98;9.32;;;;;;;23.49;16.38;98838.22;5080836;28;20077;-79
2021/10/11 01:45:51;;;;;;;21.65;9.30;;;;;;;23.38;16.46;98845.13;5082365;28;20035;-79
2021/10/11 01:48:18;;;;;;;20.27;9.60;;;;;;;23.18;16.44;98836.41;5082452;28;20060;-79
2021/10/11 01:50:44;;;;;;;18.33;8.77;;;;;;;23.38;16.41;98831.91;5086439;28;20034;-79
2021/10/11 01:53:10;;;;;;;14.55;7.93;;;;;;;23.51;16.49;98827.41;5085382;28;20047;-79
2021/10/11 01:55:36;;;;;;;15.88;8.75;;;;;;;23.67;16.28;98824.06;5083478;28;20029;-79
2021/10/11 01:58:02;;;;;;;19.40;9.02;;;;;;;23.77;16.16;98823.19;5083041;28;20042;-79
2021/10/11 02:00:28;;;;;;;18.15;8.52;;;;;;;23.84;16.27;98825.91;5077871;28;20040;-79
2021/10/11 02:02:54;;;;;;;16.42;8.23;;;;;;;23.87;16.78;98831.50;5080364;28;20058;-79
2021/10/11 02:05:20;;;;;;;16.33;8.50;;;;;;;23.44;16.77;98830.25;5082577;28;20021;-80
2021/10/11 02:07:46;;;;;;;15.60;8.20;;;;;;;23.23;16.87;98831.16;5080225;28;20040;-80
2021/10/11 02:10:13;;;;;;;18.10;8.35;;;;;;;23.20;16.77;98819.97;5076416;28;20024;-80
2021/10/11 02:12:39;;;;;;;15.43;8.32;;;;;;;23.15;16.91;98820.44;5079959;28;20070;-80
2021/10/11 02:15:06;;;;;;;17.05;8.20;;;;;;;23.40;16.66;98809.88;5083303;28;20025;-80
2021/10/11 02:17:33;;;;;;;16.40;8.20;;;;;;;23.61;16.70;98806.09;5078962;28;20044;-79
2021/10/11 02:19:59;;;;;;;16.40;8.35;;;;;;;23.75;16.37;98808.78;5080019;28;20025;-80
2021/10/11 02:22:25;;;;;;;15.95;8.55;;;;;;;23.88;16.13;98816.25;5078876;28;20188;-79
2021/10/11 02:24:51;;;;;;;19.05;9.00;;;;;;;23.98;15.77;98812.56;5079100;28;20509;-80
2021/10/11 02:27:17;;;;;;;20.63;8.13;;;;;;;23.85;16.04;98813.50;5080551;28;20045;-79
2021/10/11 02:29:43;;;;;;;21.10;10.30;;;;;;;23.74;16.46;98796.75;5076499;28;20036;-80
2021/10/11 02:32:09;;;;;;;21.20;10.38;;;;;;;23.35;17.00;98810.31;5078083;28;20082;-80
2021/10/11 02:34:35;;;;;;;20.55;11.40;;;;;;;23.08;17.15;98812.06;5075773;28;20033;-80
2021/10/11 02:37:01;;;;;;;16.15;8.85;;;;;;;23.10;16.94;98809.66;5083783;28;20717;-80
2021/10/11 02:39:27;;;;;;;16.42;9.15;;;;;;;23.01;17.32;98803.72;5079993;28;20028;-79
2021/10/11 02:41:54;;;;;;;14.73;7.25;;;;;;;23.06;17.24;98801.25;5080956;28;20028;-79
2021/10/11 02:44:20;;;;;;;15.40;8.05;;;;;;;23.41;16.54;98799.47;5082746;28;20031;-79
2021/10/11 02:46:46;;;;;;;17.17;8.25;;;;;;;23.67;16.24;98796.81;5081428;28;20470;-79
2021/10/11 02:49:12;;;;;;;18.65;9.57;;;;;;;23.89;16.25;98792.63;5081304;28;20047;-79
2021/10/11 02:51:38;;;;;;;15.15;8.15;;;;;;;23.87;16.23;98792.25;5076192;28;20037;-80
2021/10/11 02:54:04;;;;;;;18.17;8.15;;;;;;;;;;5077621;28;20036;-79
2021/10/11 02:56:30;;;;;;;18.38;8.55;;;;;;;23.57;16.35;98794.13;5082924;28;20498;-79
2021/10/11 02:58:56;;;;;;;13.68;7.75;;;;;;;23.67;16.36;98780.00;5077987;28;20040;-79
2021/10/11 03:01:22;;;;;;;14.73;7.90;;;;;;;23.77;16.24;98781.13;5083294;28;20043;-79
2021/10/11 03:03:48;;;;;;;16.02;8.30;;;;;;;23.81;16.39;98779.88;5082368;28;20047;-79
2021/10/11 03:06:14;;;;;;;17.55;7.85;;;;;;;23.77;16.46;98783.91;5084420;28;20029;-79
2021/10/11 03:08:40;;;;;;;17.45;7.97;;;;;;;23.60;16.69;98771.66;5078807;28;20401;-79
2021/10/11 03:11:06;;;;;;;16.88;9.15;;;;;;;23.64;16.21;98771.63;5079952;28;20493;-79
2021/10/11 03:13:32;;;;;;;18.48;8.25;;;;;;;23.79;16.13;98767.47;5083385;28;20536;-79
2021/10/11 03:15:58;;;;;;;16.67;8.45;;;;;;;23.73;16.32;98767.13;5087601;28;20051;-79
2021/10/11 03:18:24;;;;;;;12.73;7.03;;;;;;;23.41;16.84;98772.22;5086576;28;20051;-79
2021/10/11 03:20:51;;;;;;;16.90;9.02;;;;;;;23.52;16.32;98772.94;5084094;28;20044;-79
2021/10/11 03:23:17;;;;;;;15.13;7.68;;;;;;;23.52;16.53;98772.13;5086974;28;20032;-79
2021/10/11 03:25:43;;;;;;;15.35;7.65;;;;;;;23.64;16.43;98769.59;5083330;28;20481;-79
2021/10/11 03:28:09;;;;;;;15.73;8.52;;;;;;;23.67;16.05;98760.38;5085859;28;20090;-79
2021/10/11 03:30:35;;;;;;;14.02;7.88;;;;;;;23.38;16.53;98767.44;5091365;28;20043;-79
2021/10/11 03:33:01;;;;;;;18.60;8.88;;;;;;;23.36;16.87;98767.06;5091309;28;20028;-79
2021/10/11 03:35:27;;;;;;;19.25;8.50;;;;;;;23.51;16.65;98762.13;5091805;28;20542;-79
2021/10/11 03:37:53;;;;;;;12.73;7.13;;;;;;;23.44;16.67;98760.19;5083629;28;20056;-79
2021/10/11 03:40:19;;;;;;;20.00;8.38;;;;;;;23.53;16.20;98766.09;5082764;28;20024;-79
2021/10/11 03:42:45;;;;;;;19.52;7.97;;;;;;;23.62;16.11;98755.22;5081740;28;20180;-79
2021/10/11 03:45:12;;;;;;;11.27;6.65;;;;;;;23.71;15.79;98757.56;5084739;28;20034;-79
2021/10/11 03:47:39;;;;;;;16.77;8.23;;;;;;;23.62;16.08;98762.84;5077841;28;20037;-79
2021/10/11 03:50:06;;;;;;;18.85;8.70;;;;;;;23.32;16.40;98750.25;5086151;28;20537;-79
2021/10/11 03:52:32;;;;;;;16.50;8.40;;;;;;;23.16;16.76;98758.38;5084712;28;20076;-79
2021/10/11 03:54:58;;;;;;;15.63;8.70;;;;;;;23.05;16.58;98757.66;5093743;28;20397;-79
2021/10/11 03:57:25;;;;;;;18.20;8.25;;;;;;;22.92;16.69;98759.34;5084317;28;20428;-79
2021/10/11 03:59:51;;;;;;;17.80;8.65;;;;;;;22.98;16.73;98766.13;5084335;28;20112;-79
2021/10/11 04:02:18;;;;;;;14.98;7.03;;;;;;;23.18;16.37;98769.97;5088971;28;20028;-79
2021/10/11 04:04:44;;;;;;;13.88;8.25;;;;;;;23.43;16.47;98764.22;5085690;28;20056;-79
2021/10/11 04:07:15;;;;;;;19.02;9.02;;;;;;;23.43;16.21;98755.00;5076657;28;20029;-79
2021/10/11 04:09:43;;;;;;;19.75;8.32;;;;;;;23.25;16.53;98749.50;5078068;28;20397;-79
2021/10/11 04:12:18;;;;;;;15.15;7.43;;;;;;;23.07;16.71;98746.03;5086081;28;20160;-78
2021/10/11 04:14:44;;;;;;;18.73;9.30;;;;;;;22.82;16.71;98749.03;5080037;28;20028;-79
2021/10/11 04:17:11;;;;;;;12.55;7.32;;;;;;;23.03;16.75;98750.88;5087494;28;20080;-79
2021/10/11 04:19:37;;;;;;;15.48;8.15;;;;;;;23.27;16.48;98749.88;5081509;28;20386;-79
2021/10/11 04:22:03;;;;;;;14.10;7.47;;;;;;;23.38;16.16;98742.22;5090575;28;20032;-79
2021/10/11 04:24:29;;;;;;;17.23;8.73;;;;;;;23.39;16.22;98743.81;5085285;28;20024;-79
2021/10/11 04:26:56;;;;;;;17.23;8.65;;;;;;;23.08;16.40;98742.81;5081515;28;20039;-79
2021/10/11 04:29:22;;;;;;;18.13;8.43;;;;;;;22.68;16.59;98735.88;5087627;28;20127;-79
2021/10/11 04:31:48;;;;;;;18.20;9.40;;;;;;;22.32;17.49;98740.06;5088994;28;20028;-79
2021/10/11 04:34:14;;;;;;;16.55;8.20;;;;;;;22.35;17.11;98732.84;5081591;28;20055;-78
2021/10/11 04:36:40;;;;;;;14.13;7.85;;;;;;;22.82;16.73;98729.44;5081321;28;20064;-78
2021/10/11 04:39:07;;;;;;;15.07;7.30;;;;;;;23.14;16.31;98724.38;5083641;28;20035;-79
2021/10/11 04:41:33;;;;;;;15.68;6.47;;;;;;;23.24;16.15;98719.91;5084101;28;20037;-79
2021/10/11 04:43:59;;;;;;;16.80;8.52;;;;;;;22.92;16.19;98725.72;5086877;28;20032;-79
2021/10/11 04:46:25;;;;;;;18.90;9.35;;;;;;;22.99;16.66;98733.28;5082067;28;20392;-79
2021/10/11 04:48:51;;;;;;;15.02;7.65;;;;;;;23.08;16.32;98728.81;5084386;28;20454;-79
2021/10/11 04:51:17;;;;;;;17.92;8.15;;;;;;;23.24;16.14;98723.47;5080739;28;20048;-80
2021/10/11 04:53:43;;;;;;;12.90;7.75;;;;;;;23.40;15.86;98719.38;5082496;28;20111;-81
2021/10/11 04:56:09;;;;;;;17.77;8.70;;;;;;;23.43;16.00;98719.38;5083882;28;20028;-79
2021/10/11 04:58:35;;;;;;;16.02;8.02;;;;;;;23.52;15.95;98724.47;5083567;28;20041;-80
2021/10/11 05:01:01;;;;;;;12.50;7.43;;;;;;;23.34;16.26;98719.00;5085965;28;20071;-79
2021/10/11 05:03:27;;;;;;;16.42;7.28;;;;;;;23.40;16.64;98720.19;5087043;28;20036;-79
2021/10/11 05:05:53;;;;;;;17.00;7.53;;;;;;;23.42;16.67;98714.97;5088217;28;20047;-80
2021/10/11 05:08:19;;;;;;;13.07;7.35;;;;;;;23.44;16.36;98720.94;5084080;28;20032;-79
2021/10/11 05:10:45;;;;;;;13.35;7.18;;;;;;;23.26;16.12;98732.28;5088547;28;20032;-79
2021/10/11 05:13:11;;;;;;;16.40;7.75;;;;;;;23.29;16.56;98728.66;5083759;28;20032;-79
2021/10/11 05:15:37;;;;;;;16.17;7.30;;;;;;;23.44;16.23;98723.75;5082661;28;20032;-79
2021/10/11 05:18:04;;;;;;;12.93;6.70;;;;;;;23.57;16.31;98730.41;5089434;28;20519;-79
2021/10/11 05:20:33;;;;;;;15.02;8.05;;;;;;;23.70;16.13;98717.50;5089551;28;20024;-79
2021/10/11 05:23:00;;;;;;;14.10;6.75;;;;;;;23.66;15.92;98724.34;5079480;28;20035;-79
2021/10/11 05:25:27;;;;;;;16.73;7.85;;;;;;;23.78;15.89;98733.00;5083544;28;20031;-79
2021/10/11 05:27:54;;;;;;;13.82;7.57;;;;;;;23.84;15.86;98736.97;5081000;28;20082;-79
2021/10/11 05:30:20;;;;;;;15.57;6.72;;;;;;;23.41;16.23;98730.19;5072998;28;20109;-79
2021/10/11 05:32:46;;;;;;;13.65;7.82;;;;;;;23.25;16.29;98725.09;5080245;28;20032;-79
2021/10/11 05:35:12;;;;;;;16.00;7.47;;;;;;;23.16;16.40;98726.75;5078148;28;20040;-79
2021/10/11 05:37:39;;;;;;;16.02;6.97;;;;;;;23.40;16.19;98728.59;5073138;28;20037;-79
2021/10/11 05:40:09;;;;;;;13.93;6.90;;;;;;;23.47;16.11;98731.34;5079999;28;20024;-79
2021/10/11 05:42:35;;;;;;;15.07;7.72;;;;;;;23.60;16.25;98729.59;5084392;28;20032;-79
2021/10/11 05:45:02;;;;;;;17.90;7.00;;;;;;;23.73;16.38;98730.69;5093437;28;20071;-79
2021/10/11 05:47:28;;;;;;;17.15;7.53;;;;;;;23.93;16.21;98726.06;5074007;28;20068;-79
2021/10/11 05:49:54;;;;;;;15.98;7.35;;;;;;;23.83;16.21;98729.75;5091185;28;20036;-79
2021/10/11 05:52:21;;;;;;;14.10;8.05;;;;;;;23.69;16.67;98729.09;5092691;28;20112;-79
2021/10/11 05:54:47;;;;;;;15.85;7.90;;;;;;;23.54;16.84;98725.66;5076605;28;20078;-79
2021/10/11 05:57:13;;;;;;;16.17;7.30;;;;;;;23.59;17.15;98725.22;5078769;28;20039;-79
2021/10/11 05:59:39;;;;;;;11.60;6.72;;;;;;;23.70;17.16;98731.50;5080261;28;20032;-79
2021/10/11 06:02:05;;;;;;;11.30;5.63;;;;;;;24.04;16.93;98718.31;5072984;28;20038;-79
2021/10/11 06:04:31;;;;;;;13.07;7.30;;;;;;;24.29;16.54;98725.66;5089478;28;20032;-79
2021/10/11 06:06:57;;;;;;;14.38;7.18;;;;;;;24.57;16.51;98719.69;5080453;28;20043;-79
2021/10/11 06:09:23;;;;;;;14.38;8.20;;;;;;;24.83;16.34;98718.94;5072892;28;20066;-79
2021/10/11 06:11:50;;;;;;;14.52;7.47;;;;;;;25.05;16.22;98728.63;5073005;28;20436;-79
2021/10/11 06:14:17;;;;;;;15.00;7.43;;;;;;;25.23;16.08;98719.91;5076992;28;20024;-79
2021/10/11 06:16:44;;;;;;;20.63;9.73;;;;;;;25.36;16.15;98718.88;5077197;28;20115;-79
2021/10/11 06:19:10;;;;;;;23.92;11.30;;;;;;;25.47;16.28;98709.47;5093078;28;20036;-79
2021/10/11 06:21:36;;;;;;;32.00;12.98;;;;;;;25.50;16.15;98708.63;5092384;28;20070;-79
2021/10/11 06:24:03;;;;;;;23.33;11.10;;;;;;;25.42;16.36;98717.16;5092933;28;20500;-79
2021/10/11 06:26:29;;;;;;;22.15;10.50;;;;;;;25.51;16.28;98715.88;5079890;28;20072;-78
2021/10/11 06:28:55;;;;;;;19.55;10.45;;;;;;;25.65;16.11;98705.13;5072841;28;20040;-79
2021/10/11 06:31:21;;;;;;;24.45;11.27;;;;;;;25.82;15.94;98708.84;5072710;28;20108;-79
2021/10/11 06:33:47;;;;;;;28.08;12.88;;;;;;;25.51;17.00;98702.56;5091064;28;20032;-79
2021/10/11 06:36:14;;;;;;;27.42;12.63;;;;;;;24.93;17.68;98706.72;5081164;28;20024;-78
2021/10/11 06:38:40;;;;;;;22.83;12.30;;;;;;;24.50;17.86;98709.34;5072532;28;20474;-79
2021/10/11 06:41:06;;;;;;;21.35;11.63;;;;;;;24.84;17.77;98700.06;5072315;28;20029;-79
2021/10/11 06:43:32;;;;;;;23.63;12.32;;;;;;;25.23;17.20;98703.84;5072832;28;20090;-79
2021/10/11 06:45:58;;;;;;;23.98;11.63;;;;;;;25.66;16.80;98700.31;5072510;28;20031;-79
2021/10/11 06:48:24;;;;;;;21.77;12.00;;;;;;;25.87;16.84;98699.91;5076142;28;20461;-79
2021/10/11 06:50:50;;;;;;;25.70;13.38;;;;;;;25.97;16.84;98701.72;5082014;28;20106;-79
2021/10/11 06:53:16;;;;;;;25.70;13.48;;;;;;;25.90;17.31;98708.28;5094774;28;20028;-79
2021/10/11 06:55:42;;;;;;;25.95;13.63;;;;;;;25.85;17.40;98705.97;5096005;28;20106;-79
2021/10/11 06:58:08;;;;;;;25.33;12.57;;;;;;;25.92;17.10;98708.66;5076912;28;20538;-79
2021/10/11 07:00:36;;;;;;;24.65;12.52;;;;;;;26.00;17.27;98701.63;5075768;28;20066;-79
2021/10/11 07:03:04;;;;;;;28.02;14.40;;;;;;;26.01;17.77;98699.63;5075345;28;20032;-79
2021/10/11 07:05:31;;;;;;;23.27;13.82;;;;;;;26.09;17.86;98710.31;5077628;28;20111;-79
2021/10/11 07:07:59;;;;;;;25.75;15.40;;;;;;;26.21;17.86;98711.69;5076664;28;20044;-79
2021/10/11 07:10:25;;;;;;;24.67;12.73;;;;;;;26.25;18.11;98704.00;5077535;28;20422;-79
2021/10/11 07:12:51;;;;;;;26.95;14.43;;;;;;;26.22;18.27;98712.50;5076414;28;20045;-79
2021/10/11 07:15:19;;;;;;;19.25;11.48;;;;;;;26.34;18.03;98707.00;5074603;28;20055;-79
2021/10/11 07:17:45;;;;;;;25.77;14.65;;;;;;;26.50;18.29;98712.69;5077784;28;20407;-79
2021/10/11 07:20:11;;;;;;;22.73;13.18;;;;;;;26.71;18.25;98711.44;5096274;28;20071;-79
2021/10/11 07:22:37;;;;;;;25.17;12.13;;;;;;;27.04;17.78;98710.28;5094209;28;20075;-79
2021/10/11 07:25:04;;;;;;;22.13;11.63;;;;;;;27.30;17.60;98716.91;5095274;28;20051;-79
2021/10/11 07:27:30;;;;;;;22.67;11.27;;;;;;;27.57;17.46;98705.34;5083235;28;20126;-79
2021/10/11 07:29:56;;;;;;;21.90;10.60;;;;;;;27.69;17.62;98707.44;5095918;28;20032;-79
2021/10/11 07:32:22;;;;;;;20.80;9.98;;;;;;;27.83;17.55;98710.69;5079736;28;20195;-79
2021/10/11 07:34:48;;;;;;;17.70;10.18;;;;;;;27.91;17.41;98711.28;5075566;28;20028;-79
2021/10/11 07:37:14;;;;;;;17.25;10.15;;;;;;;27.99;17.48;98701.41;5075130;28;20409;-79
2021/10/11 07:39:40;;;;;;;21.48;9.90;;;;;;;28.09;17.47;98697.50;5078070;28;20028;-79
2021/10/11 07:42:06;;;;;;;26.92;11.77;;;;;;;27.66;17.93;98692.19;5094832;28;20085;-79
2021/10/11 07:44:32;;;;;;;18.25;10.38;;;;;;;27.71;18.16;98694.50;5086174;28;20119;-79
2021/10/11 07:46:58;;;;;;;18.27;10.85;;;;;;;27.59;18.36;98694.41;5081332;28;20024;-79
2021/10/11 07:49:24;;;;;;;16.13;10.38;;;;;;;27.38;18.34;98690.13;5095773;28;20036;-80
2021/10/11 07:51:50;;;;;;;19.20;10.90;;;;;;;27.49;18.26;98681.41;5093432;28;20044;-80
2021/10/11 07:54:18;;;;;;;17.80;10.23;;;;;;;27.15;19.22;98684.63;5085553;28;20031;-79
2021/10/11 07:56:45;;;;;;;21.15;11.30;;;;;;;26.69;19.72;98669.63;5074508;28;20047;-79
2021/10/11 07:59:11;;;;;;;23.35;11.70;;;;;;;27.25;19.64;98669.50;5075074;28;20056;-79
2021/10/11 08:01:37;;;;;;;18.73;11.30;;;;;;;26.58;19.87;98668.28;5074919;28;20496;-79
2021/10/11 08:04:04;;;;;;;25.23;12.75;;;;;;;26.61;19.34;98659.72;5074465;28;20426;-79
2021/10/11 08:06:31;;;;;;;23.17;11.90;;;;;;;26.54;19.54;98664.72;5081864;28;20035;-80
2021/10/11 08:08:57;;;;;;;21.50;13.25;;;;;;;26.55;19.67;98664.31;5095201;28;20040;-80
2021/10/11 08:11:23;;;;;;;21.85;12.18;;;;;;;27.12;19.25;98672.22;5079007;28;20094;-80
2021/10/11 08:13:49;;;;;;;21.77;12.70;;;;;;;27.51;19.04;98671.25;5077638;28;20028;-80
2021/10/11 08:16:15;;;;;;;22.15;10.88;;;;;;;27.93;18.54;98674.94;5087180;28;20037;-80
2021/10/11 08:18:41;;;;;;;21.08;11.55;;;;;;;28.23;18.09;98670.88;5094726;28;20033;-80
2021/10/11 08:21:07;;;;;;;25.10;12.35;;;;;;;27.89;18.44;98668.63;5083475;28;20035;-80
2021/10/11 08:23:41;;;;;;;21.05;10.45;;;;;;;27.68;18.55;98657.91;5075397;28;20086;-79
2021/10/11 08:26:10;;;;;;;20.10;11.40;;;;;;;28.02;18.60;98670.28;5074804;28;20032;-80
2021/10/11 08:28:38;;;;;;;23.20;10.90;;;;;;;27.84;18.57;98672.75;5074736;28;20044;-80
2021/10/11 08:31:05;;;;;;;20.80;10.68;;;;;;;27.77;18.99;98678.59;5074570;28;20545;-80
2021/10/11 08:33:31;;;;;;;19.70;10.57;;;;;;;28.14;18.53;98667.91;5075054;28;20077;-80
2021/10/11 08:36:00;;;;;;;18.35;10.75;;;;;;;27.83;18.80;98671.19;5073964;28;20074;-80
2021/10/11 08:38:27;;;;;;;14.68;9.68;;;;;;;28.29;18.76;98671.91;5080684;28;20106;-80
2021/10/11 08:40:53;;;;;;;19.17;9.27;;;;;;;28.44;18.91;98661.75;5094544;28;20031;-80
2021/10/11 08:43:20;;;;;;;17.23;7.82;;;;;;;28.99;19.08;98661.25;5094556;28;20028;-80
2021/10/11 08:45:49;;;;;;;20.45;11.05;;;;;;;29.45;18.19;98658.94;5091088;28;20108;-80
2021/10/11 08:48:15;;;;;;;15.50;10.02;;;;;;;29.94;17.52;98651.53;5079190;28;20032;-80
2021/10/11 08:50:41;;;;;;;23.58;12.23;;;;;;;28.64;18.26;98648.25;5078209;28;20123;-80
2021/10/11 08:53:09;;;;;;;23.92;12.77;;;;;;;27.45;19.33;98650.44;5074354;28;20036;-80
2021/10/11 08:55:35;;;;;;;24.73;12.93;;;;;;;26.97;20.03;98651.28;5073820;28;20033;-80
2021/10/11 08:58:04;;;;;;;22.20;11.90;;;;;;;26.54;20.53;98654.25;5086068;28;20036;-80
2021/10/11 09:00:34;;;;;;;19.52;10.25;;;;;;;26.63;20.60;98650.84;5073664;28;20032;-80
2021/10/11 09:03:02;;;;;;;21.90;12.35;;;;;;;25.83;20.21;98645.72;5089263;28;20035;-80
2021/10/11 09:05:34;;;;;;;22.48;12.05;;;;;;;25.38;21.77;98648.97;5079979;28;20473;-80
2021/10/11 09:08:05;;;;;;;22.88;11.57;;;;;;;24.85;22.03;98657.50;5075630;28;20557;-80
2021/10/11 09:10:53;;;;;;;35.45;18.15;;;;;;;24.64;21.69;98652.19;5092498;28;20073;-80
2021/10/11 09:13:38;;;;;;;22.20;12.45;;;;;;;24.74;22.03;98656.84;5072227;28;20111;-80
2021/10/11 09:16:31;;;;;;;25.13;14.98;;;;;;;26.17;20.90;98656.69;5078530;28;20400;-80
2021/10/11 09:19:15;;;;;;;24.95;14.38;;;;;;;25.42;20.75;98655.31;5088298;28;20060;-80
2021/10/11 09:21:41;;;;;;;24.17;13.18;;;;;;;26.62;20.17;98652.88;5074282;28;20174;-80
2021/10/11 09:24:10;;;;;;;23.55;12.40;;;;;;;27.07;18.84;98647.38;5074123;28;20051;-80
2021/10/11 09:26:43;;;;;;;25.38;12.95;;;;;;;27.15;19.04;98642.34;5073271;28;20028;-80
2021/10/11 09:29:09;;;;;;;21.05;11.57;;;;;;;26.66;18.99;98641.50;5073207;28;20042;-80
2021/10/11 09:31:42;;;;;;;21.88;11.05;;;;;;;25.06;19.57;98650.75;5073351;28;20150;-80
2021/10/11 09:34:09;;;;;;;23.25;12.77;;;;;;;25.02;20.36;98647.22;5073518;28;20036;-80
2021/10/11 09:36:35;;;;;;;22.60;12.30;;;;;;;25.29;19.77;98648.72;5068776;28;20024;-79
2021/10/11 09:39:03;;;;;;;20.67;11.63;;;;;;;25.71;20.05;98637.94;5077439;28;20043;-80
2021/10/11 09:41:29;;;;;;;20.25;12.05;;;;;;;26.16;19.42;98643.88;5074440;28;20097;-80
2021/10/11 09:43:56;;;;;;;19.98;11.65;;;;;;;26.38;19.49;98642.97;5084696;28;20036;-80
2021/10/11 09:46:24;;;;;;;25.52;12.18;;;;;;;26.55;19.29;98641.78;5093726;28;20031;-80
2021/10/11 09:48:52;;;;;;;21.48;11.85;;;;;;;26.64;19.57;98636.34;5090058;28;20032;-80
2021/10/11 09:51:21;;;;;;;19.75;11.95;;;;;;;26.66;19.04;98627.44;5084026;28;20045;-80
2021/10/11 09:53:48;;;;;;;21.42;12.10;;;;;;;26.44;18.45;98635.56;5073573;28;20394;-80
2021/10/11 09:56:15;;;;;;;17.95;8.85;;;;;;;26.13;18.79;98625.03;5086735;28;20478;-80
2021/10/11 09:58:41;;;;;;;19.30;10.25;;;;;;;26.29;18.91;98623.06;5076414;28;20616;-80
2021/10/11 10:01:08;;;;;;;20.98;9.55;;;;;;;26.47;18.76;98622.66;5075223;28;20028;-80
2021/10/11 10:03:34;;;;;;;20.25;10.05;;;;;;;27.10;18.04;98609.84;5087542;28;20036;-80
2021/10/11 10:06:04;;;;;;;20.80;12.45;;;;;;;26.54;18.18;98617.66;5072946;28;20494;-80
2021/10/11 10:08:33;;;;;;;19.55;10.50;;;;;;;26.37;18.74;98607.56;5073097;28;20032;-80
2021/10/11 10:11:02;;;;;;;22.42;12.15;;;;;;;27.12;17.89;98603.78;5087587;28;20120;-80
2021/10/11 10:13:30;;;;;;;17.75;9.90;;;;;;;27.67;17.59;98597.88;5072368;28;20021;-80
2021/10/11 10:16:10;;;;;;;19.27;10.98;;;;;;;28.28;17.38;98599.72;5072709;28;20024;-80
2021/10/11 10:18:42;;;;;;;18.95;11.43;;;;;;;27.26;17.75;98592.09;5092936;28;20107;-80
2021/10/11 10:21:10;;;;;;;21.67;10.40;;;;;;;27.38;18.25;98597.84;5090861;28;20055;-80
2021/10/11 10:23:38;;;;;;;14.52;9.07;;;;;;;27.44;18.12;98595.28;5086187;28;20052;-80
2021/10/11 10:26:06;;;;;;;17.35;9.45;;;;;;;27.54;18.38;98582.13;5097493;28;20035;-80
2021/10/11 10:28:45;;;;;;;19.30;9.50;;;;;;;26.95;18.06;98580.47;5078451;28;20520;-80
2021/10/11 10:31:13;;;;;;;18.27;10.82;;;;;;;26.22;18.56;98578.19;5082304;28;20051;-80
2021/10/11 10:33:41;;;;;;;17.83;10.30;;;;;;;26.86;18.68;98573.88;5097079;28;20020;-80
2021/10/11 10:36:21;;;;;;;18.42;8.88;;;;;;;27.57;18.25;98567.91;5096750;28;20473;-80
2021/10/11 10:39:00;;;;;;;22.55;11.05;;;;;;;27.62;17.44;98563.75;5076800;28;20489;-80
2021/10/11 10:41:30;;;;;;;14.68;9.02;;;;;;;26.89;18.08;98554.03;5076461;28;20116;-80
2021/10/11 10:43:56;;;;;;;18.77;9.75;;;;;;;27.92;17.52;98551.97;5076430;28;20028;-80
2021/10/11 10:46:23;;;;;;;17.08;10.20;;;;;;;28.87;17.37;98551.78;5076324;28;20044;-80
2021/10/11 10:48:55;;;;;;;19.60;10.88;;;;;;;28.12;17.89;98557.47;5086080;28;20557;-80
2021/10/11 10:51:21;;;;;;;15.43;9.52;;;;;;;28.70;17.27;98545.50;5088752;28;20041;-80
2021/10/11 10:53:52;;;;;;;22.08;11.27;;;;;;;29.54;16.88;98540.16;5076675;28;20071;-80
2021/10/11 10:56:18;;;;;;;19.13;8.85;;;;;;;30.35;16.96;98529.34;5075828;28;20107;-80
2021/10/11 10:58:44;;;;;;;14.82;8.45;;;;;;;30.08;17.09;98527.16;5076398;28;20043;-80
2021/10/11 11:01:10;;;;;;;15.65;9.07;;;;;;;29.11;17.28;98529.56;5076199;28;20028;-80
2021/10/11 11:03:36;;;;;;;14.68;8.90;;;;;;;28.96;17.55;98520.81;5079496;28;20036;-80
2021/10/11 11:06:05;;;;;;;19.13;10.55;;;;;;;28.35;18.10;98518.38;5076743;28;20043;-80
2021/10/11 11:08:32;;;;;;;20.35;10.50;;;;;;;28.62;17.80;98521.53;5076572;28;20091;-80
2021/10/11 11:11:03;;;;;;;15.15;9.50;;;;;;;28.57;17.70;98521.28;5076121;28;20044;-80
2021/10/11 11:13:29;;;;;;;23.70;11.43;;;;;;;28.08;18.25;98521.66;5076425;28;20032;-80
2021/10/11 11:15:55;;;;;;;20.05;10.77;;;;;;;27.88;18.80;98509.75;5076008;28;20036;-80
2021/10/11 11:18:26;;;;;;;24.70;12.65;;;;;;;27.90;18.71;98501.63;5075895;28;20036;-80
2021/10/11 11:20:54;;;;;;;20.77;12.80;;;;;;;28.08;18.64;98506.75;5079359;28;20039;-80